Time;durP1;ratioP1;P1;durP2;ratioP2;P2;SDS_P1;SDS_P2;PMS_P1;PMS_P2;Temp;Humidity;BMP_temperature;BMP_pressure;BME280_temperature;BME280_humidity;BME280_pressure;Samples;Min_cycle;Max_cycle;Signal;HPM_P1;HPM_P2
2022/02/05 00:02:16;;;;;;;29.47;27.27;;;3.30;99.90;;;;;;4979668;28;20585;-69
2022/02/05 00:04:43;;;;;;;29.00;27.00;;;3.20;99.90;;;;;;4980704;28;20462;-73
2022/02/05 00:07:12;;;;;;;28.10;26.07;;;3.20;99.90;;;;;;4980798;28;20550;-73
2022/02/05 00:09:57;;;;;;;28.23;25.77;;;3.20;99.90;;;;;;4977666;28;20499;-72
2022/02/05 00:12:40;;;;;;;31.97;27.33;;;3.20;99.90;;;;;;4973385;28;20503;-72
2022/02/05 00:15:27;;;;;;;28.83;26.80;;;3.20;99.90;;;;;;4982927;28;20514;-73
2022/02/05 00:40:05;;;;;;;28.93;26.93;;;3.20;99.90;;;;;;4977304;28;20501;-72
2022/02/05 00:42:38;;;;;;;27.57;24.90;;;3.20;99.90;;;;;;4973939;28;20503;-72
2022/02/05 00:45:08;;;;;;;27.53;25.60;;;3.20;99.90;;;;;;4977472;28;20460;-70
2022/02/05 00:47:38;;;;;;;26.97;25.07;;;3.30;99.90;;;;;;4988214;28;20481;-71
2022/02/05 00:50:11;;;;;;;28.03;25.63;;;3.30;99.90;;;;;;4983913;28;20496;-71
2022/02/05 00:52:38;;;;;;;26.80;24.80;;;3.30;99.90;;;;;;4982027;28;20467;-72
2022/02/05 00:55:10;;;;;;;24.60;22.90;;;3.30;99.90;;;;;;4982381;28;20471;-70
2022/02/05 00:57:46;;;;;;;26.10;24.00;;;3.40;99.90;;;;;;4972104;28;20474;-69
2022/02/05 01:00:16;;;;;;;23.53;21.77;;;3.30;99.90;;;;;;4971534;28;20463;-71
2022/02/05 01:02:43;;;;;;;26.57;23.50;;;3.40;99.90;;;;;;4974672;28;20486;-71
2022/02/05 01:05:10;;;;;;;24.40;22.23;;;3.40;99.90;;;;;;4981531;28;20466;-71
2022/02/05 01:07:38;;;;;;;22.97;21.27;;;3.30;99.90;;;;;;4976332;28;20475;-69
2022/02/05 01:10:07;;;;;;;22.60;20.80;;;3.30;99.90;;;;;;4981908;28;20490;-70
2022/02/05 01:12:37;;;;;;;22.63;20.90;;;3.30;99.90;;;;;;4979642;28;20817;-69
2022/02/05 01:15:06;;;;;;;21.93;20.40;;;3.30;99.90;;;;;;4980106;28;20867;-71
2022/02/05 01:17:37;;;;;;;22.07;19.73;;;3.30;99.90;;;;;;4979864;28;20934;-69
2022/02/05 01:20:31;;;;;;;23.77;21.07;;;3.30;99.90;;;;;;4982375;28;20470;-70
2022/02/05 01:23:02;;;;;;;26.50;19.80;;;3.30;99.90;;;;;;4982117;28;20595;-71
2022/02/05 01:25:33;;;;;;;21.17;19.57;;;3.30;99.90;;;;;;4977531;28;20475;-71
2022/02/05 01:28:07;;;;;;;24.83;19.40;;;3.30;99.90;;;;;;4981011;28;20545;-71
2022/02/05 01:30:38;;;;;;;19.83;17.97;;;3.30;99.90;;;;;;4975227;28;20462;-70
2022/02/05 01:33:18;;;;;;;20.97;19.37;;;3.30;99.90;;;;;;4974532;28;21085;-70
2022/02/05 01:36:01;;;;;;;21.30;19.43;;;3.30;99.90;;;;;;4970144;28;20961;-71
2022/02/05 01:49:56;;;;;;;19.10;17.70;;;3.40;99.90;;;;;;4975784;28;20980;-69
2022/02/05 01:52:27;;;;;;;27.37;18.00;;;3.40;99.90;;;;;;4980934;28;20470;-70
2022/02/05 01:57:53;;;;;;;19.03;17.20;;;3.40;99.90;;;;;;4967920;28;20929;-69
2022/02/05 02:06:14;;;;;;;19.23;17.70;;;3.40;99.90;;;;;;4938147;29;20475;-71
2022/02/05 02:11:38;;;;;;;18.77;17.23;;;3.40;99.90;;;;;;4962403;28;20474;-69
2022/02/05 02:19:47;;;;;;;18.20;16.50;;;3.40;99.90;;;;;;4991038;28;20455;-70
2022/02/05 02:22:23;;;;;;;17.97;16.67;;;3.40;99.90;;;;;;4973518;28;20512;-69
2022/02/05 02:25:05;;;;;;;18.10;16.43;;;3.40;99.90;;;;;;4976827;28;21081;-70
2022/02/05 02:27:39;;;;;;;17.03;16.03;;;3.40;99.90;;;;;;4978974;28;20474;-68
2022/02/05 02:30:14;;;;;;;16.60;14.77;;;3.40;99.90;;;;;;4968823;28;20473;-69
2022/02/05 02:32:45;;;;;;;18.17;16.60;;;3.40;99.90;;;;;;4982237;28;20887;-70
2022/02/05 02:35:16;;;;;;;17.97;16.30;;;3.40;99.90;;;;;;4981596;28;20486;-69
2022/02/05 02:37:51;;;;;;;18.00;16.73;;;3.40;99.90;;;;;;4978287;28;20471;-70
2022/02/05 02:40:30;;;;;;;18.60;16.60;;;3.30;99.90;;;;;;4973022;28;20499;-70
2022/02/05 02:43:06;;;;;;;17.47;15.90;;;3.30;99.90;;;;;;4976510;28;21083;-70
2022/02/05 02:45:34;;;;;;;17.40;16.00;;;3.30;99.90;;;;;;4977113;28;20470;-70
2022/02/05 02:48:01;;;;;;;17.33;16.03;;;3.40;99.90;;;;;;4979697;28;20869;-72
2022/02/05 02:50:34;;;;;;;24.80;16.90;;;3.30;99.90;;;;;;4973544;28;20486;-70
2022/02/05 02:58:39;;;;;;;16.60;15.30;;;3.30;99.90;;;;;;4982457;28;20527;-70
2022/02/05 03:01:06;;;;;;;17.47;15.83;;;3.30;99.90;;;;;;4977795;28;20462;-70
2022/02/05 03:03:33;;;;;;;16.87;15.60;;;3.30;99.90;;;;;;4977363;28;20495;-70
2022/02/05 03:06:00;;;;;;;16.63;15.57;;;3.20;99.90;;;;;;4973738;28;20467;-68
2022/02/05 03:08:28;;;;;;;17.70;15.40;;;3.20;99.90;;;;;;4973752;28;20474;-70
2022/02/05 03:10:56;;;;;;;16.70;14.60;;;3.20;99.90;;;;;;4975721;28;20474;-70
2022/02/05 03:13:22;;;;;;;22.33;16.17;;;3.20;99.90;;;;;;4970942;28;20475;-69
2022/02/05 03:15:51;;;;;;;17.43;15.80;;;3.20;99.90;;;;;;4979346;28;20472;-70
2022/02/05 03:18:29;;;;;;;17.93;16.17;;;3.20;99.90;;;;;;4976905;28;20528;-69
2022/02/05 03:20:57;;;;;;;16.20;15.00;;;3.10;99.90;;;;;;4975716;28;20482;-68
2022/02/05 03:23:24;;;;;;;14.97;13.73;;;3.10;99.90;;;;;;4977420;28;20494;-69
2022/02/05 03:25:53;;;;;;;16.30;14.87;;;3.00;99.90;;;;;;4975421;28;20471;-70
2022/02/05 03:28:20;;;;;;;15.63;14.63;;;3.10;99.90;;;;;;4977950;28;20470;-68
2022/02/05 03:30:47;;;;;;;16.13;14.90;;;3.00;99.90;;;;;;4986417;28;20557;-70
2022/02/05 03:33:14;;;;;;;15.87;14.67;;;3.00;99.90;;;;;;4977875;28;20466;-69
2022/02/05 03:35:41;;;;;;;17.77;16.20;;;3.00;99.90;;;;;;4973107;28;20992;-70
2022/02/05 03:38:08;;;;;;;16.67;15.40;;;3.00;99.90;;;;;;4978295;28;20454;-70
2022/02/05 03:40:34;;;;;;;16.67;15.13;;;3.00;99.90;;;;;;4972934;28;20470;-70
2022/02/05 03:43:03;;;;;;;16.87;15.50;;;3.00;99.90;;;;;;4980038;28;20490;-70
2022/02/05 03:45:32;;;;;;;23.00;16.30;;;3.00;99.90;;;;;;4975554;28;20470;-70
2022/02/05 03:48:01;;;;;;;27.07;15.50;;;3.00;99.90;;;;;;4979753;28;20459;-69
2022/02/05 03:50:30;;;;;;;16.17;15.00;;;2.90;99.90;;;;;;4975275;28;20519;-69
2022/02/05 03:52:58;;;;;;;15.43;14.00;;;2.90;99.90;;;;;;4980631;28;20470;-70
2022/02/05 03:55:25;;;;;;;15.07;13.90;;;2.90;99.90;;;;;;4972351;28;20459;-70
2022/02/05 03:57:52;;;;;;;16.60;15.50;;;2.80;99.90;;;;;;4977022;28;20493;-69
2022/02/05 04:00:21;;;;;;;16.63;15.20;;;2.80;99.90;;;;;;4982788;28;20467;-69
2022/02/05 04:02:49;;;;;;;15.40;14.40;;;2.90;99.90;;;;;;4983638;28;20487;-70
2022/02/05 04:05:17;;;;;;;16.53;15.20;;;2.90;99.90;;;;;;4980748;28;20549;-70
2022/02/05 04:07:49;;;;;;;15.37;14.37;;;2.90;99.90;;;;;;4975560;28;20494;-69
2022/02/05 04:10:23;;;;;;;16.20;14.57;;;2.80;99.90;;;;;;4983796;28;20482;-70
2022/02/05 04:18:21;;;;;;;16.50;15.00;;;2.90;99.90;;;;;;4973748;28;20463;-68
2022/02/05 04:20:49;;;;;;;18.03;15.33;;;2.90;99.90;;;;;;4982978;28;20501;-69
2022/02/05 04:23:16;;;;;;;16.70;15.50;;;2.90;99.90;;;;;;4981586;28;20518;-69
2022/02/05 04:25:43;;;;;;;16.63;15.10;;;2.80;99.90;;;;;;4982771;28;20471;-69
2022/02/05 04:28:10;;;;;;;17.10;15.57;;;2.80;99.90;;;;;;4976892;28;20467;-70
2022/02/05 04:30:38;;;;;;;17.20;15.73;;;2.70;99.90;;;;;;4980675;28;20470;-69
2022/02/05 04:33:05;;;;;;;15.50;14.50;;;2.70;99.90;;;;;;4977849;28;20466;-68
2022/02/05 04:35:32;;;;;;;16.90;15.30;;;2.60;99.90;;;;;;4983174;28;20473;-69
2022/02/05 04:38:01;;;;;;;16.80;15.50;;;2.60;99.90;;;;;;4982783;28;20890;-69
2022/02/05 04:40:32;;;;;;;25.40;16.00;;;2.60;99.90;;;;;;4980005;28;20864;-70
2022/02/05 04:43:13;;;;;;;17.10;15.53;;;2.60;99.90;;;;;;4977601;28;20526;-69
2022/02/05 04:46:16;;;;;;;18.43;15.40;;;2.60;99.90;;;;;;4984264;28;20459;-68
2022/02/05 04:49:15;;;;;;;19.53;15.27;;;2.50;99.90;;;;;;4977333;28;20475;-70
2022/02/05 04:54:46;;;;;;;16.97;15.50;;;2.50;99.90;;;;;;4981981;28;20459;-68
2022/02/05 04:57:31;;;;;;;15.17;13.87;;;2.50;99.90;;;;;;4974991;28;20486;-70
2022/02/05 05:00:10;;;;;;;22.17;15.23;;;2.50;99.90;;;;;;4967083;28;21027;-68
2022/02/05 05:05:38;;;;;;;19.17;16.53;;;2.50;99.90;;;;;;4955317;28;21655;-69
2022/02/05 05:11:18;;;;;;;17.77;16.03;;;2.50;99.90;;;;;;4955049;28;20539;-68
2022/02/05 05:19:26;;;;;;;15.70;14.60;;;2.50;99.90;;;;;;4956039;28;20536;-69
2022/02/05 05:21:54;;;;;;;16.70;15.30;;;2.50;99.90;;;;;;4956562;28;20477;-70
2022/02/05 05:24:20;;;;;;;17.57;15.33;;;2.50;99.90;;;;;;4957436;28;20564;-69
2022/02/05 05:26:47;;;;;;;17.87;16.13;;;2.50;99.90;;;;;;4955306;28;20467;-69
2022/02/05 05:29:14;;;;;;;17.80;16.40;;;2.50;99.90;;;;;;4954865;28;20874;-69
2022/02/05 05:31:41;;;;;;;17.13;15.70;;;2.50;99.90;;;;;;4954915;28;20506;-69
2022/02/05 05:34:10;;;;;;;18.43;16.50;;;2.60;99.90;;;;;;4955564;28;20504;-68
2022/02/05 05:36:37;;;;;;;18.17;16.47;;;2.60;99.90;;;;;;4956555;28;20557;-69
2022/02/05 05:39:05;;;;;;;18.83;15.97;;;2.60;99.90;;;;;;4956835;28;20535;-68
2022/02/05 05:41:36;;;;;;;17.57;15.77;;;2.60;99.90;;;;;;4955485;28;20471;-69
2022/02/05 05:44:16;;;;;;;17.33;15.93;;;2.60;99.90;;;;;;4956746;28;20496;-69
2022/02/05 05:46:46;;;;;;;18.20;16.80;;;2.60;99.90;;;;;;4960655;28;21020;-70
2022/02/05 05:49:16;;;;;;;17.10;15.70;;;2.60;99.90;;;;;;4956957;28;20467;-70
2022/02/05 05:51:44;;;;;;;17.43;16.10;;;2.60;99.90;;;;;;4958611;28;20546;-69
2022/02/05 05:54:12;;;;;;;22.10;17.00;;;2.60;99.90;;;;;;4956760;28;20459;-70
2022/02/05 05:56:40;;;;;;;19.30;15.80;;;2.60;99.90;;;;;;4955897;28;20467;-70
2022/02/05 05:59:07;;;;;;;17.00;15.50;;;2.60;99.90;;;;;;4956899;28;20570;-70
2022/02/05 06:01:36;;;;;;;17.90;16.10;;;2.60;99.90;;;;;;4955851;28;22346;-68
2022/02/05 06:04:03;;;;;;;17.93;16.47;;;2.60;99.90;;;;;;4954202;28;20614;-69
2022/02/05 06:06:32;;;;;;;18.00;16.07;;;2.60;99.90;;;;;;4955389;28;20511;-68
2022/02/05 06:08:59;;;;;;;17.37;15.60;;;2.60;99.90;;;;;;4955402;28;21544;-69
2022/02/05 06:11:27;;;;;;;17.10;15.60;;;2.60;99.90;;;;;;4956632;28;20494;-69
2022/02/05 06:13:53;;;;;;;17.23;15.80;;;2.60;99.90;;;;;;4955968;28;20475;-68
2022/02/05 06:16:28;;;;;;;16.50;15.20;;;2.50;99.90;;;;;;4955445;28;20475;-69
2022/02/05 06:18:56;;;;;;;16.83;15.10;;;2.60;99.90;;;;;;4956028;28;20466;-69
2022/02/05 06:21:23;;;;;;;17.90;16.10;;;2.60;99.90;;;;;;4955318;28;20829;-68
2022/02/05 06:23:51;;;;;;;17.67;15.90;;;2.50;99.90;;;;;;4954890;28;20872;-69
2022/02/05 06:26:18;;;;;;;23.87;16.00;;;2.50;99.90;;;;;;4957152;28;20553;-68
2022/02/05 06:28:45;;;;;;;21.50;17.20;;;2.50;99.90;;;;;;4956986;28;20942;-68
2022/02/05 06:31:12;;;;;;;17.10;15.70;;;2.50;99.90;;;;;;4955757;28;20460;-69
2022/02/05 06:33:39;;;;;;;17.53;16.07;;;2.50;99.90;;;;;;4954751;28;20494;-69
2022/02/05 06:36:06;;;;;;;17.90;16.30;;;2.50;99.90;;;;;;4956373;28;20471;-68
2022/02/05 06:38:33;;;;;;;16.97;15.53;;;2.50;99.90;;;;;;4955795;28;20525;-69
2022/02/05 06:41:01;;;;;;;17.57;16.00;;;2.50;99.90;;;;;;4956290;28;20481;-69
2022/02/05 06:43:28;;;;;;;16.10;15.00;;;2.50;99.90;;;;;;4982031;28;21033;-69
2022/02/05 06:45:54;;;;;;;16.67;15.43;;;2.40;99.90;;;;;;4976267;28;20467;-70
2022/02/05 06:51:03;;;;;;;17.93;16.33;;;2.40;99.90;;;;;;4955740;28;20965;-68
2022/02/05 06:53:29;;;;;;;18.33;16.77;;;2.40;99.90;;;;;;4950356;28;21559;-69
2022/02/05 06:55:56;;;;;;;20.27;18.33;;;2.40;99.90;;;;;;4953962;28;20466;-70
2022/02/05 06:58:24;;;;;;;18.33;16.57;;;2.30;99.90;;;;;;4953135;28;20479;-68
2022/02/05 07:00:52;;;;;;;18.93;17.33;;;2.30;99.90;;;;;;4952113;28;20482;-69
2022/02/05 07:03:21;;;;;;;21.90;18.63;;;2.30;99.90;;;;;;4954799;28;21045;-69
2022/02/05 07:05:50;;;;;;;22.80;16.63;;;2.30;99.90;;;;;;4954337;28;20477;-68
2022/02/05 07:08:17;;;;;;;18.93;16.40;;;2.30;99.90;;;;;;4952770;28;20470;-70
2022/02/05 07:10:43;;;;;;;17.87;16.13;;;2.30;99.90;;;;;;4952817;28;20486;-70
2022/02/05 07:13:14;;;;;;;18.10;16.20;;;2.30;99.90;;;;;;4952498;28;20468;-68
2022/02/05 07:15:49;;;;;;;19.80;16.60;;;2.20;99.90;;;;;;4951116;28;20545;-70
2022/02/05 07:18:24;;;;;;;21.60;16.70;;;2.20;99.90;;;;;;4952322;28;20499;-69
2022/02/05 07:20:55;;;;;;;17.90;16.50;;;2.20;99.90;;;;;;4952178;28;20471;-69
2022/02/05 07:23:49;;;;;;;17.83;16.30;;;2.20;99.90;;;;;;4953535;28;20498;-68
2022/02/05 07:29:16;;;;;;;17.00;15.67;;;2.20;99.90;;;;;;4954115;28;20489;-69
2022/02/05 07:31:47;;;;;;;18.60;16.60;;;2.30;99.90;;;;;;4953576;28;20545;-69
2022/02/05 07:34:15;;;;;;;17.93;16.20;;;2.30;99.90;;;;;;4954169;28;20494;-69
2022/02/05 07:36:42;;;;;;;18.60;17.20;;;2.30;99.90;;;;;;4957124;28;20471;-69
2022/02/05 07:39:09;;;;;;;19.87;17.97;;;2.40;99.90;;;;;;4956499;28;20469;-69
2022/02/05 07:41:39;;;;;;;18.10;16.33;;;2.40;99.90;;;;;;4955638;28;20460;-69
2022/02/05 07:44:08;;;;;;;17.70;16.30;;;2.40;99.90;;;;;;4956635;28;20621;-69
2022/02/05 07:46:36;;;;;;;16.30;15.17;;;2.50;99.90;;;;;;4956959;28;20462;-68
2022/02/05 07:49:05;;;;;;;17.43;15.67;;;2.50;99.90;;;;;;4956033;28;20595;-68
2022/02/05 07:51:32;;;;;;;16.23;14.60;;;2.50;99.90;;;;;;4955779;28;20463;-69
2022/02/05 07:53:59;;;;;;;16.93;15.53;;;2.60;99.90;;;;;;4957592;28;20457;-70
2022/02/05 07:56:27;;;;;;;16.90;15.60;;;2.70;99.90;;;;;;4956169;28;20950;-69
2022/02/05 07:58:54;;;;;;;17.47;15.87;;;2.80;99.90;;;;;;4957047;28;20525;-72
2022/02/05 08:01:21;;;;;;;16.07;14.40;;;2.80;99.90;;;;;;4957022;28;20708;-71
2022/02/05 08:03:48;;;;;;;18.17;16.17;;;2.80;99.90;;;;;;4973565;28;20502;-69
2022/02/05 08:06:17;;;;;;;16.67;15.17;;;2.90;99.90;;;;;;4976150;28;20964;-71
2022/02/05 08:08:47;;;;;;;16.53;14.47;;;2.90;99.90;;;;;;4973831;28;20559;-71
2022/02/05 08:11:18;;;;;;;18.63;16.00;;;2.80;99.90;;;;;;4957639;28;21195;-70
2022/02/05 08:13:48;;;;;;;16.17;14.73;;;2.90;99.90;;;;;;4953965;28;20583;-71
2022/02/05 08:16:29;;;;;;;16.23;14.90;;;2.90;99.90;;;;;;4956611;28;21406;-70
2022/02/05 08:18:56;;;;;;;16.77;15.03;;;3.00;99.90;;;;;;4954852;28;20570;-70
2022/02/05 08:21:24;;;;;;;17.00;15.50;;;3.00;99.90;;;;;;4955868;28;20492;-69
2022/02/05 08:23:51;;;;;;;16.00;14.30;;;3.10;99.90;;;;;;4955387;28;20861;-70
2022/02/05 08:26:18;;;;;;;19.67;16.37;;;3.10;99.90;;;;;;4955120;28;21226;-72
2022/02/05 08:28:45;;;;;;;18.63;15.47;;;3.20;99.90;;;;;;4955322;28;20478;-70
2022/02/05 08:31:12;;;;;;;20.77;16.50;;;3.20;99.90;;;;;;4956141;28;20958;-70
2022/02/05 08:33:43;;;;;;;16.70;15.27;;;3.30;99.90;;;;;;4955037;28;20505;-71
2022/02/05 08:36:10;;;;;;;17.70;16.10;;;3.30;99.90;;;;;;4955799;28;21241;-71
2022/02/05 08:38:39;;;;;;;17.07;15.53;;;3.40;99.90;;;;;;4955383;28;20892;-70
2022/02/05 08:41:05;;;;;;;19.70;16.37;;;3.40;99.90;;;;;;4955987;28;20471;-71
2022/02/05 08:43:32;;;;;;;18.17;16.20;;;3.50;99.90;;;;;;4954882;28;20479;-71
2022/02/05 08:46:00;;;;;;;16.77;15.40;;;3.50;99.90;;;;;;4955230;28;20466;-71
2022/02/05 08:48:27;;;;;;;17.97;16.07;;;3.50;99.90;;;;;;4974132;28;20463;-71
2022/02/05 08:50:53;;;;;;;16.73;14.97;;;3.60;99.90;;;;;;4981816;28;20824;-71
2022/02/05 08:53:21;;;;;;;17.63;15.80;;;3.60;99.90;;;;;;4980779;28;20454;-70
2022/02/05 08:55:52;;;;;;;17.87;15.63;;;3.70;99.90;;;;;;4981334;28;20463;-71
2022/02/05 08:58:19;;;;;;;18.20;15.73;;;3.70;99.90;;;;;;4955098;28;20475;-70
2022/02/05 09:00:50;;;;;;;23.07;16.33;;;3.80;99.90;;;;;;4954881;28;20481;-70
2022/02/05 09:03:27;;;;;;;18.17;15.67;;;3.80;99.90;;;;;;4953896;28;20459;-70
2022/02/05 09:05:55;;;;;;;30.80;16.20;;;3.80;99.90;;;;;;4954975;28;20471;-70
2022/02/05 09:08:26;;;;;;;17.60;16.37;;;3.90;99.90;;;;;;4955307;28;21023;-70
2022/02/05 09:11:05;;;;;;;19.83;17.00;;;4.00;99.90;;;;;;4954308;28;20518;-71
2022/02/05 09:13:51;;;;;;;16.83;15.07;;;4.00;99.90;;;;;;4954831;28;20871;-71
2022/02/05 09:16:18;;;;;;;25.47;16.77;;;4.10;99.90;;;;;;4955620;28;20614;-70
2022/02/05 09:18:46;;;;;;;19.13;17.10;;;4.10;99.90;;;;;;4955443;28;20474;-69
2022/02/05 09:21:13;;;;;;;17.47;16.00;;;4.10;99.90;;;;;;4954984;28;20471;-71
2022/02/05 09:23:43;;;;;;;17.43;15.90;;;4.20;99.90;;;;;;4954211;28;20493;-71
2022/02/05 09:26:12;;;;;;;23.70;16.40;;;4.30;99.90;;;;;;4951311;28;20475;-70
2022/02/05 09:28:41;;;;;;;19.23;16.50;;;4.30;99.90;;;;;;4953132;28;20467;-71
2022/02/05 09:31:30;;;;;;;18.83;16.83;;;4.30;99.90;;;;;;4953410;28;20579;-71
2022/02/05 09:33:58;;;;;;;22.50;16.20;;;4.40;99.90;;;;;;4953604;28;20831;-72
2022/02/05 09:36:26;;;;;;;22.07;15.93;;;4.50;99.90;;;;;;4953991;28;20480;-70
2022/02/05 09:38:54;;;;;;;15.50;14.30;;;4.50;99.90;;;;;;4952394;28;20471;-70
2022/02/05 09:41:23;;;;;;;24.40;17.53;;;4.50;99.90;;;;;;4953628;28;20474;-70
2022/02/05 09:43:50;;;;;;;23.50;17.00;;;4.60;99.90;;;;;;4953767;28;20495;-71
2022/02/05 09:46:20;;;;;;;19.37;17.27;;;4.60;99.90;;;;;;4952021;28;20469;-71
2022/02/05 09:48:49;;;;;;;19.40;17.17;;;4.70;99.90;;;;;;4952958;28;20879;-72
2022/02/05 09:51:19;;;;;;;20.07;16.77;;;4.80;99.90;;;;;;4952498;28;21710;-71
2022/02/05 09:53:47;;;;;;;19.40;17.10;;;4.80;99.90;;;;;;4952928;28;20591;-72
2022/02/05 09:56:14;;;;;;;21.07;16.10;;;4.90;99.90;;;;;;4952309;28;20475;-70
2022/02/05 09:58:42;;;;;;;19.00;16.67;;;5.00;99.90;;;;;;4952810;28;20481;-71
2022/02/05 10:01:14;;;;;;;20.73;17.80;;;5.00;99.90;;;;;;4953189;28;20467;-69
2022/02/05 10:03:43;;;;;;;20.33;15.30;;;5.00;99.90;;;;;;4953202;28;20486;-69
2022/02/05 10:06:13;;;;;;;18.10;16.30;;;5.10;99.90;;;;;;4953114;28;20475;-69
2022/02/05 10:08:41;;;;;;;18.47;16.77;;;5.20;99.90;;;;;;4952957;28;20467;-69
2022/02/05 10:11:09;;;;;;;25.63;17.33;;;5.30;99.90;;;;;;4954666;28;20485;-70
2022/02/05 10:13:36;;;;;;;21.90;16.70;;;5.30;99.90;;;;;;4952880;28;20708;-70
2022/02/05 10:16:04;;;;;;;22.83;16.90;;;5.20;99.90;;;;;;4952427;28;20832;-70
2022/02/05 10:18:32;;;;;;;17.40;15.80;;;5.20;99.90;;;;;;4953345;28;20463;-70
2022/02/05 10:21:01;;;;;;;16.83;15.27;;;5.20;99.90;;;;;;4953717;28;20459;-69
2022/02/05 10:23:29;;;;;;;16.13;14.73;;;5.30;99.90;;;;;;4954095;28;21146;-68
2022/02/05 10:25:56;;;;;;;16.43;14.80;;;5.30;99.90;;;;;;4953550;28;20816;-70
2022/02/05 10:28:24;;;;;;;17.50;16.20;;;5.40;99.90;;;;;;4953554;28;20468;-70
2022/02/05 10:30:53;;;;;;;21.60;16.83;;;5.50;99.90;;;;;;4952925;28;20478;-70
2022/02/05 10:33:26;;;;;;;19.13;17.07;;;5.70;99.90;;;;;;4953226;28;20536;-68
2022/02/05 10:36:01;;;;;;;17.77;16.37;;;5.80;99.90;;;;;;4953557;28;20636;-70
2022/02/05 10:39:08;;;;;;;18.33;16.63;;;6.00;99.90;;;;;;4953601;28;20452;-70
2022/02/05 10:44:23;;;;;;;16.03;15.03;;;6.30;99.90;;;;;;4954374;28;20491;-70
2022/02/05 10:46:53;;;;;;;17.50;16.10;;;6.10;99.90;;;;;;4956599;28;20937;-71
2022/02/05 10:49:41;;;;;;;17.03;15.50;;;6.40;99.90;;;;;;4984563;28;20870;-71
2022/02/05 10:52:09;;;;;;;18.93;16.90;;;6.50;99.90;;;;;;4977335;28;20868;-70
2022/02/05 10:54:53;;;;;;;18.20;15.77;;;6.70;99.90;;;;;;4977679;28;20506;-69
2022/02/05 10:57:25;;;;;;;17.13;15.40;;;6.90;99.90;;;;;;4954514;28;20492;-71
2022/02/05 11:05:37;;;;;;;17.07;15.33;;;7.80;99.90;;;;;;4953920;28;21015;-69
2022/02/05 11:08:04;;;;;;;20.47;15.20;;;8.30;99.90;;;;;;4955535;28;20566;-69
2022/02/05 11:13:41;;;;;;;16.87;15.37;;;8.50;99.90;;;;;;4957175;28;20947;-71
2022/02/05 11:18:56;;;;;;;16.83;14.60;;;9.00;99.90;;;;;;4937169;28;20752;-71
2022/02/05 11:21:25;;;;;;;17.03;15.53;;;8.90;99.90;;;;;;4956991;28;20523;-70
2022/02/05 11:23:56;;;;;;;16.87;15.50;;;8.70;99.90;;;;;;4956869;28;20465;-70
2022/02/05 11:26:24;;;;;;;16.63;15.00;;;8.40;99.90;;;;;;4957890;28;20477;-70
2022/02/05 11:28:52;;;;;;;18.53;15.20;;;8.50;99.90;;;;;;4956693;28;21000;-70
2022/02/05 11:31:29;;;;;;;16.70;15.30;;;8.50;99.90;;;;;;4957495;28;20474;-69
2022/02/05 11:34:18;;;;;;;15.80;14.70;;;8.60;99.90;;;;;;4957079;28;20505;-70
2022/02/05 11:36:58;;;;;;;16.43;14.87;;;9.20;99.90;;;;;;4957445;28;20505;-70
2022/02/05 11:39:25;;;;;;;17.27;15.37;;;9.20;99.90;;;;;;4976650;28;20459;-70
2022/02/05 11:41:52;;;;;;;17.20;15.53;;;8.70;99.90;;;;;;4977660;28;20498;-72
2022/02/05 11:44:38;;;;;;;16.53;15.10;;;8.00;99.90;;;;;;4957357;28;20506;-69
2022/02/05 11:47:24;;;;;;;17.33;16.13;;;7.50;99.90;;;;;;4956492;28;20473;-70
2022/02/05 11:50:12;;;;;;;41.77;16.20;;;7.20;99.90;;;;;;4956657;28;20982;-70
2022/02/05 11:53:11;;;;;;;16.80;15.60;;;7.30;99.90;;;;;;4951987;28;20476;-69
2022/02/05 11:55:43;;;;;;;17.77;16.23;;;7.40;99.90;;;;;;4957983;28;20811;-70
2022/02/05 11:58:12;;;;;;;17.50;15.70;;;7.70;99.90;;;;;;4957682;28;20474;-71
2022/02/05 12:00:41;;;;;;;16.43;15.33;;;7.90;99.90;;;;;;4956620;28;20731;-70
2022/02/05 12:03:34;;;;;;;17.20;15.70;;;8.30;99.90;;;;;;4957301;28;20473;-70
2022/02/05 12:06:06;;;;;;;17.03;15.50;;;8.60;99.90;;;;;;4957308;28;20858;-70
2022/02/05 12:08:39;;;;;;;17.83;15.93;;;8.80;99.90;;;;;;4957207;28;21005;-71
2022/02/05 12:11:30;;;;;;;17.67;15.83;;;8.90;99.90;;;;;;4955996;28;20835;-70
2022/02/05 12:14:15;;;;;;;16.77;15.43;;;9.10;99.90;;;;;;4955838;28;20966;-70
2022/02/05 12:17:09;;;;;;;16.70;15.57;;;9.20;99.90;;;;;;4956014;28;20677;-71
2022/02/05 12:20:02;;;;;;;16.13;14.87;;;9.30;99.90;;;;;;4955551;28;20474;-71
2022/02/05 12:22:58;;;;;;;16.63;15.10;;;9.00;99.90;;;;;;4956870;28;20565;-70
2022/02/05 12:25:27;;;;;;;16.80;15.50;;;8.90;99.90;;;;;;4950686;28;20612;-70
2022/02/05 12:27:54;;;;;;;16.47;15.27;;;9.20;99.90;;;;;;4957160;28;20848;-70
2022/02/05 12:30:38;;;;;;;17.70;16.20;;;9.40;99.90;;;;;;4957001;28;20846;-72
2022/02/05 12:33:08;;;;;;;16.53;15.20;;;9.40;99.90;;;;;;4956875;28;20461;-71
2022/02/05 12:35:36;;;;;;;16.43;15.00;;;9.80;99.90;;;;;;4956326;28;20473;-71
2022/02/05 12:38:05;;;;;;;17.37;16.20;;;9.80;99.90;;;;;;4955649;28;20825;-71
2022/02/05 12:40:42;;;;;;;18.70;17.20;;;9.60;99.90;;;;;;4955900;28;20467;-71
2022/02/05 12:43:10;;;;;;;17.13;16.17;;;9.40;99.90;;;;;;4956566;28;20821;-70
2022/02/05 12:45:44;;;;;;;16.87;15.53;;;9.70;99.90;;;;;;4956031;28;20505;-71
2022/02/05 12:48:12;;;;;;;17.13;15.83;;;9.70;99.90;;;;;;4955180;28;21002;-69
2022/02/05 12:50:42;;;;;;;16.60;15.70;;;9.40;99.90;;;;;;4956264;28;21263;-69
2022/02/05 12:53:10;;;;;;;16.43;14.80;;;9.00;99.90;;;;;;4955653;28;20711;-72
2022/02/05 12:55:45;;;;;;;16.27;15.27;;;8.80;99.90;;;;;;4956641;28;20484;-69
2022/02/05 12:58:14;;;;;;;16.67;15.13;;;8.80;99.90;;;;;;4956317;28;20905;-70
2022/02/05 13:00:41;;;;;;;16.53;15.20;;;9.00;99.90;;;;;;4956026;28;21002;-69
2022/02/05 13:03:25;;;;;;;16.60;15.47;;;9.20;99.90;;;;;;4956386;28;20463;-69
2022/02/05 13:05:52;;;;;;;16.00;14.80;;;9.10;99.90;;;;;;4956161;28;20511;-71
2022/02/05 13:08:19;;;;;;;16.80;15.33;;;9.10;99.90;;;;;;4956197;28;20478;-68
2022/02/05 13:10:49;;;;;;;17.13;16.03;;;9.30;99.90;;;;;;4957062;28;20482;-71
2022/02/05 13:13:16;;;;;;;20.03;16.17;;;9.50;99.90;;;;;;4955756;28;20797;-69
2022/02/05 13:15:43;;;;;;;18.80;16.90;;;9.10;99.90;;;;;;4956883;28;20534;-69
2022/02/05 13:18:22;;;;;;;17.00;15.90;;;9.00;99.90;;;;;;4956028;28;20494;-70
2022/02/05 13:26:24;;;;;;;17.93;16.20;;;9.40;99.90;;;;;;4955096;28;21165;-69
2022/02/05 13:29:18;;;;;;;16.70;15.70;;;9.60;99.90;;;;;;4954808;28;20473;-70
2022/02/05 13:34:34;;;;;;;17.23;15.87;;;9.50;99.90;;;;;;4976159;28;20493;-69
2022/02/05 13:37:10;;;;;;;17.10;16.00;;;9.60;99.90;;;;;;4976497;28;20474;-71
2022/02/05 13:39:54;;;;;;;17.57;16.10;;;9.50;99.90;;;;;;4976593;28;20461;-72
2022/02/05 13:42:26;;;;;;;17.00;15.60;;;9.60;99.90;;;;;;4962194;28;20463;-71
2022/02/05 13:44:59;;;;;;;15.73;14.57;;;9.50;99.90;;;;;;4955172;28;21018;-69
2022/02/05 13:47:29;;;;;;;16.57;15.37;;;9.00;99.90;;;;;;4955177;28;20460;-69
2022/02/05 13:50:11;;;;;;;16.13;14.93;;;9.30;99.90;;;;;;4954212;28;20468;-69
2022/02/05 13:52:41;;;;;;;16.27;15.13;;;9.60;99.90;;;;;;4954723;28;22494;-72
2022/02/05 13:55:10;;;;;;;15.77;14.83;;;9.30;99.90;;;;;;4954359;28;20472;-69
2022/02/05 13:57:38;;;;;;;16.80;15.37;;;9.20;99.90;;;;;;4953876;28;20731;-71
2022/02/05 14:00:06;;;;;;;16.60;15.70;;;9.30;99.90;;;;;;4955516;28;20496;-70
2022/02/05 14:02:38;;;;;;;15.70;14.40;;;9.40;99.90;;;;;;4955451;28;20467;-70
2022/02/05 14:05:10;;;;;;;15.77;14.80;;;9.70;99.90;;;;;;4955009;28;21050;-70
2022/02/05 14:07:43;;;;;;;16.17;15.10;;;9.90;99.90;;;;;;4955206;28;20479;-70
2022/02/05 14:10:12;;;;;;;16.50;15.40;;;10.10;99.90;;;;;;4957028;28;20494;-68
2022/02/05 14:12:49;;;;;;;16.60;15.50;;;9.90;99.90;;;;;;4954775;28;20924;-70
2022/02/05 14:15:17;;;;;;;17.63;16.40;;;9.60;99.90;;;;;;4955193;28;20607;-70
2022/02/05 14:17:45;;;;;;;16.10;15.00;;;9.40;99.90;;;;;;4954556;28;20467;-70
2022/02/05 14:20:13;;;;;;;16.80;15.67;;;9.00;99.90;;;;;;4955397;28;20558;-72
2022/02/05 14:22:44;;;;;;;15.73;14.90;;;9.10;99.90;;;;;;4954748;28;20793;-70
2022/02/05 14:25:16;;;;;;;16.10;15.10;;;9.10;99.90;;;;;;4955315;28;20493;-72
2022/02/05 14:28:09;;;;;;;17.63;16.00;;;9.10;99.90;;;;;;4954795;28;20545;-70
2022/02/05 14:30:38;;;;;;;17.40;16.10;;;9.20;99.90;;;;;;4954844;28;20532;-71
2022/02/05 14:33:08;;;;;;;17.10;15.57;;;9.30;99.90;;;;;;4954650;28;21084;-70
2022/02/05 14:41:00;;;;;;;16.57;15.20;;;9.50;99.90;;;;;;4977328;28;20480;-69
2022/02/05 14:43:28;;;;;;;17.83;16.30;;;9.70;99.90;;;;;;4977121;28;20486;-70
2022/02/05 14:45:55;;;;;;;17.47;15.93;;;9.30;99.90;;;;;;4961811;28;20497;-69
2022/02/05 14:48:23;;;;;;;16.30;15.23;;;9.40;99.90;;;;;;4954460;28;20989;-70